Time;durP1;ratioP1;P1;durP2;ratioP2;P2;SDS_P1;SDS_P2;PMS_P1;PMS_P2;Temp;Humidity;BMP_temperature;BMP_pressure;BME280_temperature;BME280_humidity;BME280_pressure;Samples;Min_cycle;Max_cycle;Signal;HPM_P1;HPM_P2
2022/03/01 00:17:15;;;;;;;;;;;;;;;;;;5082816;28;20408;-87
2022/03/01 00:24:45;;;;;;;14.07;6.07;;;;;;;;;;5038885;22;20052;-86
2022/03/01 00:27:49;;;;;;;17.10;6.20;;;;;;;;;;5012607;28;20491;-87
2022/03/01 00:30:27;;;;;;;16.27;6.18;;;;;;;;;;5010758;28;20033;-87
2022/03/01 00:34:19;;;;;;;14.90;6.55;;;;;;;;;;4986103;28;20633;-87
2022/03/01 00:37:12;;;;;;;18.25;6.00;;;;;;;;;;4966534;28;20114;-87
2022/03/01 00:40:06;;;;;;;16.27;6.10;;;;;;;;;;4938377;28;20508;-87
2022/03/01 00:43:39;;;;;;;18.30;6.05;;;;;;;;;;4940160;28;20130;-87
2022/03/01 00:46:49;;;;;;;15.80;5.25;;;;;;;;;;5019577;28;20046;-87
2022/03/01 00:49:27;;;;;;;15.93;5.82;;;;;;;;;;5007668;28;21014;-87
2022/03/01 00:56:34;;;;;;;16.10;5.88;;;;;;;;;;5023905;28;20047;-87
2022/03/01 00:59:30;;;;;;;19.50;6.43;;;;;;;;;;4991348;28;20141;-87
2022/03/01 01:06:48;;;;;;;17.52;7.20;;;;;;;;;;5050284;23;20057;-86
2022/03/01 01:10:22;;;;;;;14.50;5.05;;;;;;;;;;5030651;28;20045;-86
2022/03/01 01:17:26;;;;;;;16.40;5.90;;;;;;;;;;5013978;28;20125;-88
2022/03/01 01:24:45;;;;;;;14.32;4.90;;;;;;;;;;5038369;23;20068;-87
2022/03/01 01:27:35;;;;;;;13.38;4.60;;;;;;;;;;4994679;28;20442;-87
2022/03/01 01:30:25;;;;;;;13.70;5.85;;;;;;;;;;4986781;28;20053;-87
2022/03/01 01:33:48;;;;;;;13.77;4.95;;;;;;;;;;4996158;28;20053;-87
2022/03/01 01:36:29;;;;;;;14.38;6.03;;;;;;;;;;4990716;28;20053;-87
2022/03/01 01:39:00;;;;;;;17.05;6.28;;;;;;;;;;4982538;28;20049;-87
2022/03/01 01:46:23;;;;;;;11.93;5.22;;;;;;;;;;4996495;28;20072;-87
2022/03/01 01:48:59;;;;;;;13.88;5.80;;;;;;;;;;4981215;28;20054;-87
2022/03/01 01:59:11;;;;;;;14.18;4.95;;;;;;;;;;1203741;23;20306;-87
2022/03/01 02:05:52;;;;;;;17.98;6.22;;;;;;;;;;5009905;28;20038;-87
2022/03/01 02:08:29;;;;;;;14.60;5.50;;;;;;;;;;4997172;28;20144;-87
2022/03/01 02:15:51;;;;;;;17.65;6.32;;;;;;;;;;5029358;28;20041;-87
2022/03/01 02:18:20;;;;;;;14.32;5.07;;;;;;;;;;5001184;28;20453;-87
2022/03/01 02:27:34;;;;;;;18.20;5.25;;;;;;;;;;5015433;28;20651;-87
2022/03/01 02:30:04;;;;;;;13.38;5.90;;;;;;;;;;4997334;28;20071;-87
2022/03/01 02:33:26;;;;;;;14.90;6.70;;;;;;;;;;5002618;28;20072;-87
2022/03/01 02:36:14;;;;;;;15.32;5.70;;;;;;;;;;5001789;28;20431;-87
2022/03/01 02:38:42;;;;;;;14.60;5.65;;;;;;;;;;4997801;28;20053;-87
2022/03/01 02:45:32;;;;;;;16.00;6.20;;;;;;;;;;5021412;28;20046;-87
2022/03/01 02:48:02;;;;;;;16.95;5.95;;;;;;;;;;5021392;28;20137;-87
2022/03/01 02:50:30;;;;;;;16.98;5.55;;;;;;;;;;5017501;28;20135;-87
2022/03/01 02:53:29;;;;;;;13.57;5.07;;;;;;;;;;5009203;28;20042;-87
2022/03/01 02:56:50;;;;;;;15.90;5.63;;;;;;;;;;5011684;28;20500;-87
2022/03/01 02:59:19;;;;;;;16.50;4.70;;;;;;;;;;5017567;28;20501;-87
2022/03/01 03:02:48;;;;;;;12.88;5.45;;;;;;;;;;5018101;28;20045;-87
2022/03/01 03:05:46;;;;;;;12.15;4.22;;;;;;;;;;4997728;28;20034;-87
2022/03/01 03:08:18;;;;;;;13.98;5.97;;;;;;;;;;5033413;28;20045;-87
2022/03/01 03:26:50;;;;;;;11.23;4.53;;;;;;;;;;5031414;28;20112;-87
2022/03/01 03:29:18;;;;;;;16.13;5.00;;;;;;;;;;5003493;28;20049;-87
2022/03/01 03:32:57;;;;;;;17.25;5.88;;;;;;;;;;5041709;28;20045;-87
2022/03/01 03:35:38;;;;;;;19.02;5.40;;;;;;;;;;5013932;28;20049;-87
2022/03/01 03:38:06;;;;;;;17.80;6.05;;;;;;;;;;5016669;28;20041;-87
2022/03/01 03:45:03;;;;;;;11.98;5.38;;;;;;;;;;5059522;23;20067;-87
2022/03/01 03:47:32;;;;;;;12.45;5.57;;;;;;;;;;4982054;28;20046;-87
2022/03/01 03:50:00;;;;;;;15.23;5.40;;;;;;;;;;4984453;28;20080;-86
2022/03/01 03:52:51;;;;;;;19.52;6.28;;;;;;;;;;5013779;28;20053;-86
2022/03/01 03:55:24;;;;;;;16.15;5.18;;;;;;;;;;5012771;28;20164;-87
2022/03/01 03:57:52;;;;;;;16.17;5.82;;;;;;;;;;5015646;28;20056;-87
2022/03/01 04:00:20;;;;;;;15.30;5.55;;;;;;;;;;5003805;28;20068;-87
2022/03/01 04:02:58;;;;;;;16.63;6.05;;;;;;;;;;4989059;28;21021;-87
2022/03/01 04:05:30;;;;;;;15.57;5.85;;;;;;;;;;4997188;28;20048;-87
2022/03/01 04:08:00;;;;;;;13.25;5.78;;;;;;;;;;5050277;28;20824;-87
2022/03/01 04:10:28;;;;;;;17.92;6.15;;;;;;;;;;5015711;28;20046;-87
2022/03/01 04:12:56;;;;;;;17.33;6.18;;;;;;;;;;4998439;28;20567;-86
2022/03/01 04:15:24;;;;;;;14.77;5.78;;;;;;;;;;5003249;28;20049;-86
2022/03/01 04:17:52;;;;;;;16.17;5.90;;;;;;;;;;5013285;28;20136;-86
2022/03/01 04:20:21;;;;;;;13.73;5.75;;;;;;;;;;5003099;28;20098;-86
2022/03/01 04:22:50;;;;;;;12.30;5.03;;;;;;;;;;5009124;28;20128;-86
2022/03/01 04:25:20;;;;;;;11.60;4.85;;;;;;;;;;5015148;28;20093;-86
2022/03/01 04:27:48;;;;;;;15.60;5.82;;;;;;;;;;5015128;28;20062;-86
2022/03/01 04:30:16;;;;;;;19.40;6.25;;;;;;;;;;4987033;28;20075;-86
2022/03/01 04:32:50;;;;;;;14.68;5.60;;;;;;;;;;5002674;28;20586;-86
2022/03/01 04:35:20;;;;;;;15.32;5.43;;;;;;;;;;4986723;28;20076;-86
2022/03/01 04:37:48;;;;;;;13.98;5.90;;;;;;;;;;4987763;28;20055;-86
2022/03/01 04:40:17;;;;;;;14.27;5.80;;;;;;;;;;4998905;28;20729;-86
2022/03/01 04:42:47;;;;;;;12.13;5.22;;;;;;;;;;5005897;28;20054;-86
2022/03/01 04:45:16;;;;;;;15.35;6.30;;;;;;;;;;5017949;28;20760;-86
2022/03/01 04:47:44;;;;;;;16.02;5.85;;;;;;;;;;5002967;28;20175;-86
2022/03/01 04:50:12;;;;;;;14.80;5.78;;;;;;;;;;5031445;28;20058;-87
2022/03/01 04:52:49;;;;;;;15.52;5.97;;;;;;;;;;5027681;28;20125;-86
2022/03/01 04:55:17;;;;;;;13.38;5.55;;;;;;;;;;5004823;28;20184;-86
2022/03/01 04:57:46;;;;;;;12.90;5.80;;;;;;;;;;5008547;28;20067;-86
2022/03/01 05:00:14;;;;;;;17.27;6.55;;;;;;;;;;5023100;28;20693;-86
2022/03/01 05:02:48;;;;;;;16.58;6.25;;;;;;;;;;5021771;28;20152;-86
2022/03/01 05:05:18;;;;;;;13.95;5.93;;;;;;;;;;5046627;28;20036;-86
2022/03/01 05:07:48;;;;;;;16.02;6.55;;;;;;;;;;5037234;28;20686;-86
2022/03/01 05:10:18;;;;;;;13.13;5.70;;;;;;;;;;5051938;28;20120;-86
2022/03/01 05:12:57;;;;;;;20.27;6.22;;;;;;;;;;5003054;28;20123;-86
2022/03/01 05:15:27;;;;;;;17.13;5.80;;;;;;;;;;5007255;28;20045;-86
2022/03/01 05:17:58;;;;;;;16.70;5.82;;;;;;;;;;5008125;28;20643;-86
2022/03/01 05:20:26;;;;;;;13.48;6.05;;;;;;;;;;5007336;28;20063;-86
2022/03/01 05:22:55;;;;;;;11.73;5.68;;;;;;;;;;5040058;28;20041;-86
2022/03/01 05:25:24;;;;;;;15.77;5.95;;;;;;;;;;5018644;28;20072;-86
2022/03/01 05:27:53;;;;;;;14.38;5.93;;;;;;;;;;5020937;28;20135;-86
2022/03/01 05:30:22;;;;;;;14.85;6.38;;;;;;;;;;5023424;28;20839;-86
2022/03/01 05:32:51;;;;;;;19.48;6.57;;;;;;;;;;5006363;28;20069;-86
2022/03/01 05:35:23;;;;;;;16.05;5.68;;;;;;;;;;5040305;28;20107;-86
2022/03/01 05:37:54;;;;;;;15.85;5.22;;;;;;;;;;4987743;28;20442;-86
2022/03/01 05:40:25;;;;;;;17.05;6.30;;;;;;;;;;4976409;28;20046;-86
2022/03/01 05:42:53;;;;;;;12.32;5.40;;;;;;;;;;5010816;28;20133;-86
2022/03/01 05:45:24;;;;;;;16.42;6.72;;;;;;;;;;4978437;28;20454;-86
2022/03/01 05:47:52;;;;;;;14.05;5.88;;;;;;;;;;4988576;28;20511;-86
2022/03/01 05:50:21;;;;;;;15.60;6.03;;;;;;;;;;4974878;28;20045;-86
2022/03/01 05:52:53;;;;;;;14.52;5.93;;;;;;;;;;4959750;28;20053;-86
2022/03/01 05:55:22;;;;;;;15.75;6.47;;;;;;;;;;4991177;28;20041;-86
2022/03/01 05:57:50;;;;;;;15.85;6.15;;;;;;;;;;4971060;28;20042;-86
2022/03/01 06:00:20;;;;;;;15.90;6.15;;;;;;;;;;5006771;28;20069;-86
2022/03/01 06:02:53;;;;;;;13.40;5.95;;;;;;;;;;4990782;28;20958;-86
2022/03/01 06:05:27;;;;;;;20.88;7.22;;;;;;;;;;4962569;28;20073;-86
2022/03/01 06:07:58;;;;;;;19.08;7.63;;;;;;;;;;4981519;28;20046;-86
2022/03/01 06:10:26;;;;;;;21.52;6.65;;;;;;;;;;5029895;28;20076;-86
2022/03/01 06:12:54;;;;;;;15.75;6.53;;;;;;;;;;5023017;28;20037;-86
2022/03/01 06:15:26;;;;;;;15.40;6.60;;;;;;;;;;5031770;28;20056;-86
2022/03/01 06:17:54;;;;;;;21.33;6.90;;;;;;;;;;5034197;28;20087;-86
2022/03/01 06:20:22;;;;;;;20.10;7.15;;;;;;;;;;5021030;28;20043;-86
2022/03/01 06:22:52;;;;;;;20.38;6.07;;;;;;;;;;5022252;28;20041;-86
2022/03/01 06:25:34;;;;;;;19.85;6.82;;;;;;;;;;5019706;28;20053;-86
2022/03/01 06:28:02;;;;;;;13.73;6.18;;;;;;;;;;5002568;28;20095;-86
2022/03/01 06:30:29;;;;;;;16.05;6.90;;;;;;;;;;5022140;28;20494;-86
2022/03/01 06:32:57;;;;;;;15.02;6.25;;;;;;;;;;5002794;28;20388;-86
2022/03/01 06:35:25;;;;;;;20.38;7.78;;;;;;;;;;5015530;28;20056;-85
2022/03/01 06:37:54;;;;;;;17.27;6.18;;;;;;;;;;5020883;28;20045;-85
2022/03/01 06:40:23;;;;;;;18.13;5.88;;;;;;;;;;5017261;28;20060;-86
2022/03/01 06:42:54;;;;;;;14.25;5.95;;;;;;;;;;5017633;28;20051;-85
2022/03/01 06:45:22;;;;;;;13.73;6.22;;;;;;;;;;5020694;28;20111;-85
2022/03/01 06:47:52;;;;;;;17.77;6.70;;;;;;;;;;5019393;28;20030;-85
2022/03/01 06:50:22;;;;;;;17.10;6.47;;;;;;;;;;5017985;28;20036;-85
2022/03/01 06:52:51;;;;;;;17.52;6.68;;;;;;;;;;5031900;28;20051;-85
2022/03/01 06:55:21;;;;;;;17.00;7.28;;;;;;;;;;5008602;28;20405;-85
2022/03/01 06:57:50;;;;;;;13.70;6.32;;;;;;;;;;5016901;28;20631;-85
2022/03/01 07:00:18;;;;;;;18.55;6.57;;;;;;;;;;5032560;28;20087;-86
2022/03/01 07:02:49;;;;;;;19.30;6.65;;;;;;;;;;5035711;28;20040;-86
2022/03/01 07:05:19;;;;;;;19.52;7.10;;;;;;;;;;5016210;28;20474;-86
2022/03/01 07:07:48;;;;;;;17.38;8.05;;;;;;;;;;5040254;28;20056;-86
2022/03/01 07:10:16;;;;;;;17.58;7.65;;;;;;;;;;5020856;28;20410;-86
2022/03/01 07:12:49;;;;;;;17.27;6.90;;;;;;;;;;5001844;28;20085;-86
2022/03/01 07:15:18;;;;;;;22.20;7.43;;;;;;;;;;5037814;28;20386;-86
2022/03/01 07:17:46;;;;;;;20.20;7.25;;;;;;;;;;5000766;28;20048;-86
2022/03/01 07:20:14;;;;;;;16.52;6.53;;;;;;;;;;5002681;28;20045;-86
2022/03/01 07:22:48;;;;;;;17.00;6.65;;;;;;;;;;5049585;28;20040;-86
2022/03/01 07:25:20;;;;;;;22.33;6.80;;;;;;;;;;5017106;28;20053;-86
2022/03/01 07:27:51;;;;;;;18.67;6.43;;;;;;;;;;4998538;28;20042;-86
2022/03/01 07:30:19;;;;;;;18.63;7.13;;;;;;;;;;5033549;28;20045;-86
2022/03/01 07:32:55;;;;;;;18.45;7.90;;;;;;;;;;5029475;28;20040;-86
2022/03/01 07:35:25;;;;;;;20.70;7.28;;;;;;;;;;5024214;28;20482;-86
2022/03/01 07:37:54;;;;;;;16.92;6.47;;;;;;;;;;4992018;28;20060;-86
2022/03/01 07:40:24;;;;;;;18.30;6.93;;;;;;;;;;5017111;28;20045;-87
2022/03/01 07:42:52;;;;;;;17.08;6.47;;;;;;;;;;5003380;28;20138;-86
2022/03/01 07:45:20;;;;;;;23.50;7.95;;;;;;;;;;5000419;28;20041;-86
2022/03/01 07:47:51;;;;;;;20.35;7.40;;;;;;;;;;5020035;28;20037;-86
2022/03/01 07:50:21;;;;;;;27.20;8.05;;;;;;;;;;5001336;28;20071;-86
2022/03/01 07:53:05;;;;;;;17.00;7.25;;;;;;;;;;5032402;28;20045;-86
2022/03/01 07:55:36;;;;;;;17.70;7.45;;;;;;;;;;5027208;28;20079;-86
2022/03/01 07:58:03;;;;;;;16.98;7.68;;;;;;;;;;5007473;28;20049;-87
2022/03/01 08:00:32;;;;;;;18.13;7.43;;;;;;;;;;5036240;28;20057;-87
2022/03/01 08:03:20;;;;;;;15.45;7.15;;;;;;;;;;4989964;28;20108;-86
2022/03/01 08:05:48;;;;;;;20.45;6.82;;;;;;;;;;4990907;28;20494;-86
2022/03/01 08:08:16;;;;;;;22.58;8.52;;;;;;;;;;5012395;28;20056;-87
2022/03/01 08:15:10;;;;;;;15.88;6.95;;;;;;;;;;5013813;23;20042;-87
2022/03/01 08:17:49;;;;;;;17.05;7.50;;;;;;;;;;4994146;28;20142;-87
2022/03/01 08:20:18;;;;;;;18.67;7.30;;;;;;;;;;4973305;28;20046;-87
2022/03/01 08:22:49;;;;;;;16.38;7.20;;;;;;;;;;4977208;28;20052;-87
2022/03/01 08:25:26;;;;;;;14.88;6.63;;;;;;;;;;4965369;28;20072;-87
2022/03/01 08:27:59;;;;;;;17.67;7.30;;;;;;;;;;4976699;28;20042;-87
2022/03/01 08:30:27;;;;;;;17.33;7.38;;;;;;;;;;4982145;28;20049;-87
2022/03/01 08:33:02;;;;;;;15.95;7.05;;;;;;;;;;4997205;28;20070;-87
2022/03/01 08:35:58;;;;;;;23.15;7.85;;;;;;;;;;4994023;28;21328;-87
2022/03/01 08:38:42;;;;;;;20.73;7.50;;;;;;;;;;4966485;28;20077;-87
2022/03/01 10:05:13;;;;;;;18.92;7.75;;;;;;;;;;4965494;28;20140;-84
2022/03/01 10:09:24;;;;;;;18.88;8.20;;;;;;;;;;4923307;29;20064;-86
2022/03/01 10:13:50;;;;;;;20.42;8.05;;;;;;;;;;4852805;29;20088;-84
2022/03/01 10:18:21;;;;;;;19.08;7.80;;;;;;;;;;4849087;29;20467;-84
2022/03/01 10:22:48;;;;;;;18.55;7.47;;;;;;;;;;4817983;29;20057;-84
2022/03/01 11:27:54;;;;;;;17.52;7.70;;;;;;;;;;4868102;29;21005;-86
2022/03/01 11:37:29;;;;;;;18.75;8.35;;;;;;;;;;4740487;30;20467;-86
2022/03/01 13:49:03;;;;;;;20.08;7.88;;;;;;;;;;4898218;29;20599;-86
2022/03/01 14:16:22;;;;;;;19.02;6.72;;;;;;;;;;4654416;30;20062;-85
2022/03/01 14:49:45;;;;;;;17.27;7.50;;;;;;;;;;4710810;30;20130;-86
2022/03/01 14:54:20;;;;;;;19.55;7.80;;;;;;;;;;4781852;29;20059;-84
2022/03/01 14:58:17;;;;;;;19.63;8.18;;;;;;;;;;4710572;30;20057;-85
2022/03/01 18:06:16;;;;;;;25.25;9.45;;;;;;;;;;5002410;28;20120;-85
2022/03/01 18:08:52;;;;;;;27.75;12.50;;;;;;;;;;4985520;28;20053;-84
2022/03/01 18:11:42;;;;;;;22.05;10.07;;;;;;;;;;4994940;28;20077;-83
2022/03/01 18:14:28;;;;;;;23.10;10.20;;;;;;;;;;4982274;28;20061;-84
2022/03/01 18:17:10;;;;;;;;;;;;;;;;;;4986057;28;20154;-82
2022/03/01 18:19:38;;;;;;;25.70;10.73;;;;;;;;;;5009690;28;20257;-82
2022/03/01 18:22:07;;;;;;;21.67;9.68;;;;;;;;;;5005274;28;20041;-82
2022/03/01 18:24:40;;;;;;;24.38;10.63;;;;;;;;;;5008907;28;20485;-84
2022/03/01 18:27:12;;;;;;;28.98;10.45;;;;;;;;;;5006794;28;20049;-82
2022/03/01 18:29:53;;;;;;;20.30;9.43;;;;;;;;;;5004395;28;20061;-85
2022/03/01 18:32:29;;;;;;;23.52;10.20;;;;;;;;;;4991900;28;20056;-82
2022/03/01 18:34:56;;;;;;;22.83;9.68;;;;;;;;;;4991313;28;20120;-83
2022/03/01 18:37:24;;;;;;;22.23;9.70;;;;;;;;;;5010457;28;20051;-83
2022/03/01 18:39:52;;;;;;;19.75;10.25;;;;;;;;;;5006574;28;20054;-84
2022/03/01 18:42:34;;;;;;;21.80;10.02;;;;;;;;;;4970022;28;20133;-83
2022/03/01 18:45:16;;;;;;;23.20;9.95;;;;;;;;;;5004889;28;20062;-83
2022/03/01 18:47:44;;;;;;;23.00;8.88;;;;;;;;;;4990408;28;20053;-82
2022/03/01 18:50:16;;;;;;;18.25;8.40;;;;;;;;;;5007511;28;20046;-83
2022/03/01 18:52:44;;;;;;;18.48;9.77;;;;;;;;;;5004723;28;20046;-82
2022/03/01 18:55:12;;;;;;;18.73;9.65;;;;;;;;;;5008912;28;20092;-83
2022/03/01 18:57:42;;;;;;;21.70;9.75;;;;;;;;;;5007536;28;20755;-82
2022/03/01 19:00:11;;;;;;;24.52;9.05;;;;;;;;;;5007587;28;20041;-83
2022/03/01 19:02:52;;;;;;;21.77;9.68;;;;;;;;;;5005024;28;21168;-83
2022/03/01 19:05:22;;;;;;;21.02;9.00;;;;;;;;;;5007295;28;20168;-82
2022/03/01 19:07:58;;;;;;;24.58;9.50;;;;;;;;;;5001929;28;20053;-83
2022/03/01 19:10:41;;;;;;;25.00;8.75;;;;;;;;;;4984446;28;20106;-82
2022/03/01 19:13:09;;;;;;;22.67;9.73;;;;;;;;;;5001245;28;20134;-82
2022/03/01 19:15:42;;;;;;;20.45;8.68;;;;;;;;;;5006812;28;20386;-84
2022/03/01 19:18:12;;;;;;;20.73;9.27;;;;;;;;;;4986275;28;20045;-82
2022/03/01 19:20:40;;;;;;;19.92;9.32;;;;;;;;;;5003572;28;20461;-82
2022/03/01 19:23:28;;;;;;;20.05;9.82;;;;;;;;;;5002279;28;20147;-82
2022/03/01 19:25:56;;;;;;;20.05;8.52;;;;;;;;;;5013778;28;20076;-82
2022/03/01 19:28:24;;;;;;;22.30;9.52;;;;;;;;;;5009126;28;20468;-83
2022/03/01 19:30:53;;;;;;;18.23;8.43;;;;;;;;;;5011185;28;20147;-82
2022/03/01 19:33:24;;;;;;;23.95;9.50;;;;;;;;;;5004871;28;20171;-83
2022/03/01 19:35:52;;;;;;;35.67;15.55;;;;;;;;;;4976695;28;20152;-82
2022/03/01 19:38:20;;;;;;;40.13;16.05;;;;;;;;;;4989486;28;20037;-83
2022/03/01 19:40:48;;;;;;;34.65;13.48;;;;;;;;;;5009025;28;20083;-83
2022/03/01 19:43:24;;;;;;;29.00;13.35;;;;;;;;;;4967924;28;20046;-83
2022/03/01 19:45:53;;;;;;;28.98;13.05;;;;;;;;;;4975726;28;20164;-83
2022/03/01 19:48:22;;;;;;;28.42;11.38;;;;;;;;;;4995581;28;20049;-83
2022/03/01 19:51:04;;;;;;;26.20;11.38;;;;;;;;;;5003304;28;20070;-84
2022/03/01 19:53:46;;;;;;;27.13;12.05;;;;;;;;;;5007827;28;20409;-84
2022/03/01 19:57:06;;;;;;;31.48;12.35;;;;;;;;;;4949641;28;20050;-82
2022/03/01 19:59:48;;;;;;;25.05;11.68;;;;;;;;;;4948526;28;20062;-83
2022/03/01 20:02:39;;;;;;;29.58;12.38;;;;;;;;;;4914857;28;20059;-84
2022/03/01 20:05:11;;;;;;;29.17;11.95;;;;;;;;;;4948123;28;20066;-84
2022/03/01 20:07:41;;;;;;;28.45;12.57;;;;;;;;;;4952211;28;20059;-84
2022/03/01 20:10:15;;;;;;;27.67;12.48;;;;;;;;;;4947297;28;20050;-86
2022/03/01 20:13:50;;;;;;;27.75;11.57;;;;;;;;;;4894131;29;20055;-84
2022/03/01 20:17:17;;;;;;;21.40;10.70;;;;;;;;;;4869865;29;20065;-84
2022/03/01 20:20:08;;;;;;;32.55;12.07;;;;;;;;;;4875340;29;20093;-84
2022/03/01 20:23:11;;;;;;;27.63;10.77;;;;;;;;;;4875137;29;20117;-84
2022/03/01 20:26:34;;;;;;;26.38;10.70;;;;;;;;;;4860949;29;20200;-84
2022/03/01 20:29:30;;;;;;;29.98;12.00;;;;;;;;;;4909794;29;20096;-84
2022/03/01 20:32:12;;;;;;;26.85;12.13;;;;;;;;;;4910065;29;20082;-83
2022/03/01 20:34:57;;;;;;;28.33;12.15;;;;;;;;;;4906679;29;20512;-85
2022/03/01 20:37:38;;;;;;;27.83;12.02;;;;;;;;;;4906311;29;20114;-85
2022/03/01 20:40:21;;;;;;;24.83;11.57;;;;;;;;;;4909516;29;20212;-85
2022/03/01 20:43:06;;;;;;;21.25;9.88;;;;;;;;;;4876879;29;20109;-86
2022/03/01 20:45:48;;;;;;;25.25;11.73;;;;;;;;;;4903316;29;20122;-85
2022/03/01 20:48:30;;;;;;;27.60;11.57;;;;;;;;;;4943711;28;20063;-85
2022/03/01 20:51:12;;;;;;;24.55;11.68;;;;;;;;;;4992663;28;20088;-85
2022/03/01 20:53:54;;;;;;;25.45;10.80;;;;;;;;;;4980895;28;20061;-85
2022/03/01 20:56:23;;;;;;;27.00;11.30;;;;;;;;;;5012394;28;20160;-84
2022/03/01 20:59:04;;;;;;;22.98;10.40;;;;;;;;;;4995540;28;20046;-84
2022/03/01 21:01:36;;;;;;;29.35;11.38;;;;;;;;;;5012415;28;20057;-85
2022/03/01 21:04:19;;;;;;;26.25;11.25;;;;;;;;;;5010995;28;20061;-84
2022/03/01 21:06:48;;;;;;;25.92;10.65;;;;;;;;;;5015561;28;20115;-84
2022/03/01 21:09:16;;;;;;;24.90;11.77;;;;;;;;;;5014662;28;20053;-84
2022/03/01 21:11:45;;;;;;;29.48;13.15;;;;;;;;;;5011566;28;20053;-84
2022/03/01 21:14:13;;;;;;;25.23;12.27;;;;;;;;;;5013506;28;20077;-84
2022/03/01 21:16:40;;;;;;;29.00;12.55;;;;;;;;;;5012608;28;20045;-84
2022/03/01 21:19:08;;;;;;;28.42;12.25;;;;;;;;;;5007434;28;20058;-84
2022/03/01 21:21:36;;;;;;;24.90;11.52;;;;;;;;;;4997562;28;20492;-84
2022/03/01 21:24:04;;;;;;;23.70;11.23;;;;;;;;;;5009513;28;20053;-84
2022/03/01 21:26:32;;;;;;;26.73;10.80;;;;;;;;;;4993862;28;20153;-85
2022/03/01 21:29:14;;;;;;;25.27;12.25;;;;;;;;;;4987838;28;20081;-84
2022/03/01 21:31:42;;;;;;;27.58;11.82;;;;;;;;;;5013726;28;20064;-84
2022/03/01 21:34:10;;;;;;;24.77;10.98;;;;;;;;;;4992331;28;20140;-83
2022/03/01 21:36:38;;;;;;;25.20;11.07;;;;;;;;;;5011283;28;20057;-83
2022/03/01 21:39:06;;;;;;;28.60;11.35;;;;;;;;;;5008982;28;20057;-84
2022/03/01 21:41:34;;;;;;;25.83;10.77;;;;;;;;;;4998378;28;20397;-84
2022/03/01 21:44:02;;;;;;;25.88;11.25;;;;;;;;;;5010899;28;20045;-85
2022/03/01 21:46:44;;;;;;;30.85;11.85;;;;;;;;;;4981209;28;20145;-84
2022/03/01 21:49:12;;;;;;;27.23;11.32;;;;;;;;;;5007382;28;20049;-84
2022/03/01 21:51:40;;;;;;;25.17;11.15;;;;;;;;;;4995659;28;20056;-84
2022/03/01 21:54:08;;;;;;;22.20;10.00;;;;;;;;;;5008763;28;20339;-82
2022/03/01 21:56:36;;;;;;;25.40;10.90;;;;;;;;;;4983331;28;20053;-81
2022/03/01 21:59:05;;;;;;;22.98;10.57;;;;;;;;;;4994436;28;20057;-82
2022/03/01 22:01:33;;;;;;;24.42;10.20;;;;;;;;;;4984770;28;20393;-83
